sensor_id;sensor_type;location;lat;lon;timestamp;pressure;altitude;pressure_sealevel;temperature;humidity
53960;BME280;39866;48.638;-2.020;2024-01-15T00:01:54;101026.03;;;9.75;100.00
53960;BME280;39866;48.638;-2.020;2024-01-15T00:04:20;101019.69;;;9.82;100.00
53960;BME280;39866;48.638;-2.020;2024-01-15T00:06:45;101013.53;;;9.80;100.00
53960;BME280;39866;48.638;-2.020;2024-01-15T00:09:10;101018.78;;;9.83;100.00
53960;BME280;39866;48.638;-2.020;2024-01-15T00:11:36;101003.72;;;9.82;100.00
53960;BME280;39866;48.638;-2.020;2024-01-15T00:14:01;101008.34;;;9.76;100.00
53960;BME280;39866;48.638;-2.020;2024-01-15T00:16:26;101003.03;;;9.74;100.00
53960;BME280;39866;48.638;-2.020;2024-01-15T00:18:52;100998.63;;;9.73;100.00
53960;BME280;39866;48.638;-2.020;2024-01-15T00:21:17;100995.00;;;9.77;100.00
53960;BME280;39866;48.638;-2.020;2024-01-15T00:23:43;100998.47;;;9.79;100.00
53960;BME280;39866;48.638;-2.020;2024-01-15T00:26:09;100997.59;;;9.79;100.00
53960;BME280;39866;48.638;-2.020;2024-01-15T00:28:36;100994.06;;;9.78;100.00
53960;BME280;39866;48.638;-2.020;2024-01-15T00:31:01;100986.16;;;9.77;100.00
53960;BME280;39866;48.638;-2.020;2024-01-15T00:33:26;100987.13;;;9.71;100.00
53960;BME280;39866;48.638;-2.020;2024-01-15T00:35:52;100977.34;;;9.73;100.00
53960;BME280;39866;48.638;-2.020;2024-01-15T00:38:17;100951.75;;;9.69;100.00
53960;BME280;39866;48.638;-2.020;2024-01-15T00:40:43;100963.91;;;9.79;100.00
53960;BME280;39866;48.638;-2.020;2024-01-15T00:43:08;100946.41;;;9.69;100.00
53960;BME280;39866;48.638;-2.020;2024-01-15T00:45:33;100964.00;;;9.76;100.00
53960;BME280;39866;48.638;-2.020;2024-01-15T00:47:59;100973.00;;;9.69;100.00
53960;BME280;39866;48.638;-2.020;2024-01-15T00:50:26;100967.44;;;9.81;100.00
53960;BME280;39866;48.638;-2.020;2024-01-15T00:52:51;100960.47;;;9.74;100.00
53960;BME280;39866;48.638;-2.020;2024-01-15T00:55:17;100962.28;;;9.74;100.00
53960;BME280;39866;48.638;-2.020;2024-01-15T00:57:42;100954.94;;;9.83;100.00
53960;BME280;39866;48.638;-2.020;2024-01-15T01:00:07;100959.50;;;9.78;100.00
53960;BME280;39866;48.638;-2.020;2024-01-15T01:02:34;100951.69;;;9.72;100.00
53960;BME280;39866;48.638;-2.020;2024-01-15T01:04:59;100947.22;;;9.73;100.00
53960;BME280;39866;48.638;-2.020;2024-01-15T01:07:25;100950.06;;;9.65;100.00
53960;BME280;39866;48.638;-2.020;2024-01-15T01:09:50;100952.56;;;9.71;100.00
53960;BME280;39866;48.638;-2.020;2024-01-15T01:12:16;100949.06;;;9.69;100.00
53960;BME280;39866;48.638;-2.020;2024-01-15T01:14:42;100950.97;;;9.62;100.00
53960;BME280;39866;48.638;-2.020;2024-01-15T01:17:07;100946.97;;;9.83;100.00
53960;BME280;39866;48.638;-2.020;2024-01-15T01:19:32;100948.03;;;9.76;100.00
53960;BME280;39866;48.638;-2.020;2024-01-15T01:21:58;100944.47;;;9.77;100.00
53960;BME280;39866;48.638;-2.020;2024-01-15T01:24:23;100947.28;;;9.70;100.00
53960;BME280;39866;48.638;-2.020;2024-01-15T01:26:48;100945.19;;;9.43;100.00
53960;BME280;39866;48.638;-2.020;2024-01-15T01:29:14;100937.84;;;9.56;100.00
53960;BME280;39866;48.638;-2.020;2024-01-15T01:31:43;100942.03;;;9.68;100.00
53960;BME280;39866;48.638;-2.020;2024-01-15T01:34:09;100932.22;;;9.70;100.00
53960;BME280;39866;48.638;-2.020;2024-01-15T01:36:35;100937.53;;;9.70;100.00
53960;BME280;39866;48.638;-2.020;2024-01-15T01:39:00;100937.41;;;9.76;100.00
53960;BME280;39866;48.638;-2.020;2024-01-15T01:41:25;100931.34;;;9.70;100.00
53960;BME280;39866;48.638;-2.020;2024-01-15T01:43:51;100932.97;;;9.77;100.00
53960;BME280;39866;48.638;-2.020;2024-01-15T01:46:16;100934.81;;;9.73;100.00
53960;BME280;39866;48.638;-2.020;2024-01-15T01:48:42;100926.84;;;9.73;100.00
53960;BME280;39866;48.638;-2.020;2024-01-15T01:51:08;100923.16;;;9.79;100.00
53960;BME280;39866;48.638;-2.020;2024-01-15T01:53:34;100915.22;;;9.77;100.00
53960;BME280;39866;48.638;-2.020;2024-01-15T01:56:00;100917.78;;;9.82;100.00
53960;BME280;39866;48.638;-2.020;2024-01-15T01:58:27;100920.44;;;9.82;100.00
53960;BME280;39866;48.638;-2.020;2024-01-15T02:00:53;100908.97;;;9.80;100.00
53960;BME280;39866;48.638;-2.020;2024-01-15T02:03:19;100904.38;;;9.86;100.00
53960;BME280;39866;48.638;-2.020;2024-01-15T02:05:47;100909.84;;;9.80;100.00
53960;BME280;39866;48.638;-2.020;2024-01-15T02:08:14;100910.88;;;9.73;100.00
53960;BME280;39866;48.638;-2.020;2024-01-15T02:10:39;100900.09;;;9.79;100.00
53960;BME280;39866;48.638;-2.020;2024-01-15T02:13:05;100895.75;;;9.77;100.00
53960;BME280;39866;48.638;-2.020;2024-01-15T02:15:30;100903.59;;;9.81;100.00
53960;BME280;39866;48.638;-2.020;2024-01-15T02:18:06;100905.22;;;9.88;100.00
53960;BME280;39866;48.638;-2.020;2024-01-15T02:20:33;100908.53;;;9.98;100.00
53960;BME280;39866;48.638;-2.020;2024-01-15T02:23:07;100907.09;;;9.83;100.00
53960;BME280;39866;48.638;-2.020;2024-01-15T02:25:33;100897.47;;;9.78;100.00
53960;BME280;39866;48.638;-2.020;2024-01-15T02:27:59;100907.03;;;9.86;100.00
53960;BME280;39866;48.638;-2.020;2024-01-15T02:30:25;100907.78;;;9.91;100.00
53960;BME280;39866;48.638;-2.020;2024-01-15T02:32:50;100909.72;;;9.85;100.00
53960;BME280;39866;48.638;-2.020;2024-01-15T02:35:16;100909.72;;;9.85;100.00
53960;BME280;39866;48.638;-2.020;2024-01-15T02:37:41;100903.56;;;9.83;100.00
53960;BME280;39866;48.638;-2.020;2024-01-15T02:40:07;100907.84;;;9.90;100.00
53960;BME280;39866;48.638;-2.020;2024-01-15T02:42:33;100902.56;;;9.87;100.00
53960;BME280;39866;48.638;-2.020;2024-01-15T02:44:58;100901.19;;;9.71;100.00
53960;BME280;39866;48.638;-2.020;2024-01-15T02:47:23;100897.22;;;9.50;100.00
53960;BME280;39866;48.638;-2.020;2024-01-15T02:49:48;100904.59;;;9.77;100.00
53960;BME280;39866;48.638;-2.020;2024-01-15T02:52:14;100896.53;;;9.80;100.00
53960;BME280;39866;48.638;-2.020;2024-01-15T02:54:39;100898.34;;;9.78;100.00
53960;BME280;39866;48.638;-2.020;2024-01-15T02:57:04;100898.19;;;9.86;100.00
53960;BME280;39866;48.638;-2.020;2024-01-15T02:59:30;100904.31;;;9.89;100.00
53960;BME280;39866;48.638;-2.020;2024-01-15T03:01:55;100905.13;;;9.93;100.00
53960;BME280;39866;48.638;-2.020;2024-01-15T03:04:20;100909.56;;;9.92;100.00
53960;BME280;39866;48.638;-2.020;2024-01-15T03:06:46;100906.75;;;9.99;100.00
53960;BME280;39866;48.638;-2.020;2024-01-15T03:09:11;100908.66;;;9.93;100.00
53960;BME280;39866;48.638;-2.020;2024-01-15T03:11:40;100905.13;;;9.93;100.00
53960;BME280;39866;48.638;-2.020;2024-01-15T03:14:05;100901.69;;;9.88;100.00
53960;BME280;39866;48.638;-2.020;2024-01-15T03:16:31;100906.69;;;10.02;100.00
53960;BME280;39866;48.638;-2.020;2024-01-15T03:18:56;100892.63;;;9.97;100.00
53960;BME280;39866;48.638;-2.020;2024-01-15T03:21:21;100902.28;;;9.99;100.00
53960;BME280;39866;48.638;-2.020;2024-01-15T03:23:47;100898.66;;;10.03;100.00
53960;BME280;39866;48.638;-2.020;2024-01-15T03:26:12;100896.09;;;9.99;100.00
53960;BME280;39866;48.638;-2.020;2024-01-15T03:28:37;100889.09;;;9.95;100.00
53960;BME280;39866;48.638;-2.020;2024-01-15T03:31:03;100884.53;;;10.01;100.00
53960;BME280;39866;48.638;-2.020;2024-01-15T03:33:28;100887.06;;;10.06;100.00
53960;BME280;39866;48.638;-2.020;2024-01-15T03:35:53;100884.47;;;10.04;100.00
53960;BME280;39866;48.638;-2.020;2024-01-15T03:38:19;100881.88;;;10.01;100.00
53960;BME280;39866;48.638;-2.020;2024-01-15T03:40:44;100871.19;;;10.03;100.00
53960;BME280;39866;48.638;-2.020;2024-01-15T03:43:09;100872.66;;;10.14;100.00
53960;BME280;39866;48.638;-2.020;2024-01-15T03:45:35;100887.94;;;10.06;100.00
53960;BME280;39866;48.638;-2.020;2024-01-15T03:48:00;100865.75;;;10.07;100.00
53960;BME280;39866;48.638;-2.020;2024-01-15T03:50:25;100874.53;;;10.11;100.00
53960;BME280;39866;48.638;-2.020;2024-01-15T03:52:51;100869.31;;;10.06;100.00
53960;BME280;39866;48.638;-2.020;2024-01-15T03:55:16;100869.09;;;10.15;100.00
53960;BME280;39866;48.638;-2.020;2024-01-15T03:57:41;100873.59;;;10.12;100.00
53960;BME280;39866;48.638;-2.020;2024-01-15T04:00:07;100871.88;;;10.11;100.00
53960;BME280;39866;48.638;-2.020;2024-01-15T04:02:33;100870.06;;;10.13;100.00
53960;BME280;39866;48.638;-2.020;2024-01-15T04:04:58;100869.13;;;10.14;100.00
53960;BME280;39866;48.638;-2.020;2024-01-15T04:07:23;100864.84;;;10.08;100.00
53960;BME280;39866;48.638;-2.020;2024-01-15T04:09:49;100864.69;;;10.14;100.00
53960;BME280;39866;48.638;-2.020;2024-01-15T04:12:14;100861.97;;;10.16;100.00
53960;BME280;39866;48.638;-2.020;2024-01-15T04:14:39;100858.63;;;10.09;100.00
53960;BME280;39866;48.638;-2.020;2024-01-15T04:17:04;100861.22;;;10.11;100.00
53960;BME280;39866;48.638;-2.020;2024-01-15T04:19:30;100856.75;;;10.13;100.00
53960;BME280;39866;48.638;-2.020;2024-01-15T04:21:55;100854.09;;;10.13;100.00
53960;BME280;39866;48.638;-2.020;2024-01-15T04:24:20;100853.13;;;10.15;100.00
53960;BME280;39866;48.638;-2.020;2024-01-15T04:26:46;100837.34;;;10.08;100.00
53960;BME280;39866;48.638;-2.020;2024-01-15T04:29:11;100849.66;;;10.12;100.00
53960;BME280;39866;48.638;-2.020;2024-01-15T04:31:37;100855.16;;;10.06;100.00
53960;BME280;39866;48.638;-2.020;2024-01-15T04:34:02;100853.31;;;10.08;100.00
53960;BME280;39866;48.638;-2.020;2024-01-15T04:36:27;100858.44;;;10.15;100.00
53960;BME280;39866;48.638;-2.020;2024-01-15T04:38:53;100846.19;;;10.10;100.00
53960;BME280;39866;48.638;-2.020;2024-01-15T04:41:18;100852.16;;;9.82;100.00
53960;BME280;39866;48.638;-2.020;2024-01-15T04:43:44;100855.50;;;9.90;100.00
53960;BME280;39866;48.638;-2.020;2024-01-15T04:46:09;100850.13;;;9.93;100.00
53960;BME280;39866;48.638;-2.020;2024-01-15T04:48:35;100853.53;;;10.00;100.00
53960;BME280;39866;48.638;-2.020;2024-01-15T04:51:00;100845.75;;;9.91;100.00
53960;BME280;39866;48.638;-2.020;2024-01-15T04:53:26;100844.94;;;9.87;100.00
53960;BME280;39866;48.638;-2.020;2024-01-15T04:55:51;100833.53;;;9.84;100.00
53960;BME280;39866;48.638;-2.020;2024-01-15T04:58:17;100844.41;;;9.73;100.00
53960;BME280;39866;48.638;-2.020;2024-01-15T05:00:42;100841.59;;;9.79;100.00
53960;BME280;39866;48.638;-2.020;2024-01-15T05:03:07;100848.84;;;9.73;100.00
53960;BME280;39866;48.638;-2.020;2024-01-15T05:05:33;100856.91;;;9.70;100.00
53960;BME280;39866;48.638;-2.020;2024-01-15T05:07:58;100860.59;;;9.64;100.00
53960;BME280;39866;48.638;-2.020;2024-01-15T05:10:23;100859.50;;;9.71;100.00
53960;BME280;39866;48.638;-2.020;2024-01-15T05:12:49;100862.25;;;9.68;100.00
53960;BME280;39866;48.638;-2.020;2024-01-15T05:15:14;100856.25;;;9.60;100.00
53960;BME280;39866;48.638;-2.020;2024-01-15T05:17:40;100856.91;;;9.70;100.00
53960;BME280;39866;48.638;-2.020;2024-01-15T05:20:05;100855.88;;;9.75;100.00
53960;BME280;39866;48.638;-2.020;2024-01-15T05:22:31;100853.41;;;9.67;100.00
53960;BME280;39866;48.638;-2.020;2024-01-15T05:24:56;100851.47;;;9.74;100.00
53960;BME280;39866;48.638;-2.020;2024-01-15T05:27:21;100855.69;;;9.84;100.00
53960;BME280;39866;48.638;-2.020;2024-01-15T05:29:47;100849.91;;;10.03;100.00
53960;BME280;39866;48.638;-2.020;2024-01-15T05:32:12;100842.97;;;9.96;100.00
53960;BME280;39866;48.638;-2.020;2024-01-15T05:34:37;100857.34;;;9.88;100.00
53960;BME280;39866;48.638;-2.020;2024-01-15T05:37:03;100855.78;;;9.41;100.00
53960;BME280;39866;48.638;-2.020;2024-01-15T05:39:28;100849.94;;;8.80;100.00
53960;BME280;39866;48.638;-2.020;2024-01-15T05:41:53;100846.28;;;8.87;100.00
53960;BME280;39866;48.638;-2.020;2024-01-15T05:44:19;100848.59;;;8.59;100.00
53960;BME280;39866;48.638;-2.020;2024-01-15T05:46:44;100848.41;;;8.68;100.00
53960;BME280;39866;48.638;-2.020;2024-01-15T05:49:09;100844.44;;;8.91;100.00
53960;BME280;39866;48.638;-2.020;2024-01-15T05:51:35;100852.66;;;8.79;100.00
53960;BME280;39866;48.638;-2.020;2024-01-15T05:54:00;100842.84;;;8.81;100.00
53960;BME280;39866;48.638;-2.020;2024-01-15T05:56:26;100846.31;;;8.84;100.00
53960;BME280;39866;48.638;-2.020;2024-01-15T05:58:51;100845.97;;;8.58;100.00
53960;BME280;39866;48.638;-2.020;2024-01-15T06:01:17;100849.22;;;8.72;100.00
53960;BME280;39866;48.638;-2.020;2024-01-15T06:03:42;100841.69;;;8.96;100.00
53960;BME280;39866;48.638;-2.020;2024-01-15T06:06:08;100848.78;;;8.93;100.00
53960;BME280;39866;48.638;-2.020;2024-01-15T06:08:33;100845.59;;;8.76;100.00
53960;BME280;39866;48.638;-2.020;2024-01-15T06:10:59;100849.94;;;8.80;100.00
53960;BME280;39866;48.638;-2.020;2024-01-15T06:13:24;100843.25;;;8.61;100.00
53960;BME280;39866;48.638;-2.020;2024-01-15T06:15:50;100838.38;;;8.84;100.00
53960;BME280;39866;48.638;-2.020;2024-01-15T06:18:15;100835.94;;;8.72;100.00
53960;BME280;39866;48.638;-2.020;2024-01-15T06:20:40;100826.94;;;8.81;100.00
53960;BME280;39866;48.638;-2.020;2024-01-15T06:23:06;100835.94;;;8.74;100.00
53960;BME280;39866;48.638;-2.020;2024-01-15T06:25:31;100834.50;;;8.57;100.00
53960;BME280;39866;48.638;-2.020;2024-01-15T06:27:56;100840.59;;;8.61;100.00
53960;BME280;39866;48.638;-2.020;2024-01-15T06:30:22;100843.47;;;8.49;100.00
53960;BME280;39866;48.638;-2.020;2024-01-15T06:32:47;100838.41;;;8.83;100.00
53960;BME280;39866;48.638;-2.020;2024-01-15T06:35:12;100841.63;;;8.99;100.00
53960;BME280;39866;48.638;-2.020;2024-01-15T06:37:38;100837.66;;;9.20;100.00
53960;BME280;39866;48.638;-2.020;2024-01-15T06:40:03;100843.06;;;9.15;100.00
53960;BME280;39866;48.638;-2.020;2024-01-15T06:42:30;100844.59;;;9.25;100.00
53960;BME280;39866;48.638;-2.020;2024-01-15T06:44:56;100844.22;;;9.42;100.00
53960;BME280;39866;48.638;-2.020;2024-01-15T06:47:21;100822.25;;;9.34;100.00
53960;BME280;39866;48.638;-2.020;2024-01-15T06:49:47;100843.34;;;9.43;100.00
53960;BME280;39866;48.638;-2.020;2024-01-15T06:52:13;100840.72;;;9.00;100.00
53960;BME280;39866;48.638;-2.020;2024-01-15T06:54:38;100842.66;;;9.33;100.00
53960;BME280;39866;48.638;-2.020;2024-01-15T06:57:04;100836.84;;;9.16;100.00
53960;BME280;39866;48.638;-2.020;2024-01-15T06:59:31;100844.97;;;9.49;100.00
53960;BME280;39866;48.638;-2.020;2024-01-15T07:01:57;100857.28;;;9.53;100.00
53960;BME280;39866;48.638;-2.020;2024-01-15T07:04:22;100856.75;;;9.37;100.00
53960;BME280;39866;48.638;-2.020;2024-01-15T07:06:47;100854.75;;;9.47;100.00
53960;BME280;39866;48.638;-2.020;2024-01-15T07:09:13;100854.69;;;9.51;100.00
53960;BME280;39866;48.638;-2.020;2024-01-15T07:11:38;100852.03;;;9.51;100.00
53960;BME280;39866;48.638;-2.020;2024-01-15T07:14:08;100852.78;;;9.55;100.00
53960;BME280;39866;48.638;-2.020;2024-01-15T07:16:34;100863.41;;;9.56;100.00
53960;BME280;39866;48.638;-2.020;2024-01-15T07:18:59;100867.09;;;9.49;100.00
53960;BME280;39866;48.638;-2.020;2024-01-15T07:21:24;100860.97;;;9.47;100.00
53960;BME280;39866;48.638;-2.020;2024-01-15T07:23:50;100864.50;;;9.46;100.00
53960;BME280;39866;48.638;-2.020;2024-01-15T07:26:15;100870.53;;;9.54;100.00
53960;BME280;39866;48.638;-2.020;2024-01-15T07:28:40;100873.19;;;9.56;100.00
53960;BME280;39866;48.638;-2.020;2024-01-15T07:31:06;100873.09;;;9.59;100.00
53960;BME280;39866;48.638;-2.020;2024-01-15T07:33:31;100865.03;;;9.62;100.00
53960;BME280;39866;48.638;-2.020;2024-01-15T07:35:56;100871.16;;;9.65;100.00
53960;BME280;39866;48.638;-2.020;2024-01-15T07:38:22;100880.88;;;9.68;100.00
53960;BME280;39866;48.638;-2.020;2024-01-15T07:40:47;100876.31;;;9.73;100.00
53960;BME280;39866;48.638;-2.020;2024-01-15T07:43:14;100874.47;;;9.75;100.00
53960;BME280;39866;48.638;-2.020;2024-01-15T07:45:40;100882.38;;;9.80;100.00
53960;BME280;39866;48.638;-2.020;2024-01-15T07:48:05;100883.13;;;9.85;100.00
53960;BME280;39866;48.638;-2.020;2024-01-15T07:50:31;100887.50;;;9.87;100.00
53960;BME280;39866;48.638;-2.020;2024-01-15T07:52:56;100892.75;;;9.90;100.00
53960;BME280;39866;48.638;-2.020;2024-01-15T07:55:21;100897.13;;;9.93;100.00
53960;BME280;39866;48.638;-2.020;2024-01-15T07:57:47;100903.28;;;9.95;100.00
53960;BME280;39866;48.638;-2.020;2024-01-15T08:00:13;100906.03;;;9.92;100.00
53960;BME280;39866;48.638;-2.020;2024-01-15T08:02:39;100907.72;;;9.96;100.00
53960;BME280;39866;48.638;-2.020;2024-01-15T08:05:04;100915.63;;;9.98;100.00
53960;BME280;39866;48.638;-2.020;2024-01-15T08:07:29;100918.34;;;9.96;100.00
53960;BME280;39866;48.638;-2.020;2024-01-15T08:09:55;100929.03;;;9.93;100.00
53960;BME280;39866;48.638;-2.020;2024-01-15T08:12:20;100939.28;;;9.71;100.00
53960;BME280;39866;48.638;-2.020;2024-01-15T08:14:45;100939.31;;;9.26;100.00
53960;BME280;39866;48.638;-2.020;2024-01-15T08:17:11;100930.28;;;8.91;100.00
53960;BME280;39866;48.638;-2.020;2024-01-15T08:19:36;100938.44;;;9.27;100.00
53960;BME280;39866;48.638;-2.020;2024-01-15T08:22:02;100937.25;;;8.97;100.00
53960;BME280;39866;48.638;-2.020;2024-01-15T08:24:27;100946.44;;;8.79;100.00
53960;BME280;39866;48.638;-2.020;2024-01-15T08:26:53;100935.94;;;9.20;100.00
53960;BME280;39866;48.638;-2.020;2024-01-15T08:29:19;100939.97;;;9.39;100.00
53960;BME280;39866;48.638;-2.020;2024-01-15T08:31:46;100946.78;;;9.51;100.00
53960;BME280;39866;48.638;-2.020;2024-01-15T08:34:11;100942.44;;;9.48;100.00
53960;BME280;39866;48.638;-2.020;2024-01-15T08:36:36;100938.72;;;9.57;100.00
53960;BME280;39866;48.638;-2.020;2024-01-15T08:39:02;100936.69;;;9.68;100.00
53960;BME280;39866;48.638;-2.020;2024-01-15T08:41:30;100941.75;;;9.38;100.00
53960;BME280;39866;48.638;-2.020;2024-01-15T08:43:55;100943.91;;;9.61;100.00
53960;BME280;39866;48.638;-2.020;2024-01-15T08:46:21;100945.75;;;9.59;100.00
53960;BME280;39866;48.638;-2.020;2024-01-15T08:48:46;100940.34;;;9.62;100.00
53960;BME280;39866;48.638;-2.020;2024-01-15T08:51:11;100950.00;;;9.68;100.00
53960;BME280;39866;48.638;-2.020;2024-01-15T08:53:37;100947.91;;;9.82;100.00
53960;BME280;39866;48.638;-2.020;2024-01-15T08:56:02;100953.16;;;9.85;100.00
53960;BME280;39866;48.638;-2.020;2024-01-15T08:58:27;100949.44;;;9.92;100.00
53960;BME280;39866;48.638;-2.020;2024-01-15T09:00:53;100951.03;;;10.00;100.00
53960;BME280;39866;48.638;-2.020;2024-01-15T09:03:18;100947.50;;;10.01;100.00
53960;BME280;39866;48.638;-2.020;2024-01-15T09:05:44;100953.56;;;10.06;100.00
53960;BME280;39866;48.638;-2.020;2024-01-15T09:08:09;100949.06;;;10.08;100.00
53960;BME280;39866;48.638;-2.020;2024-01-15T09:10:35;100949.88;;;10.11;100.00
53960;BME280;39866;48.638;-2.020;2024-01-15T09:13:00;100956.16;;;10.09;100.00
53960;BME280;39866;48.638;-2.020;2024-01-15T09:15:25;100953.34;;;10.16;100.00
53960;BME280;39866;48.638;-2.020;2024-01-15T09:17:51;100957.69;;;10.19;100.00
53960;BME280;39866;48.638;-2.020;2024-01-15T09:20:16;100953.25;;;10.20;100.00
53960;BME280;39866;48.638;-2.020;2024-01-15T09:22:41;100959.38;;;10.23;100.00
53960;BME280;39866;48.638;-2.020;2024-01-15T09:25:08;100950.44;;;10.27;100.00
53960;BME280;39866;48.638;-2.020;2024-01-15T09:27:37;100955.69;;;10.30;100.00
53960;BME280;39866;48.638;-2.020;2024-01-15T09:30:03;100956.44;;;10.35;100.00
53960;BME280;39866;48.638;-2.020;2024-01-15T09:32:30;100964.38;;;10.38;100.00
53960;BME280;39866;48.638;-2.020;2024-01-15T09:34:55;100964.38;;;10.38;100.00
53960;BME280;39866;48.638;-2.020;2024-01-15T09:37:20;100963.44;;;10.41;100.00
53960;BME280;39866;48.638;-2.020;2024-01-15T09:39:46;100969.63;;;10.41;100.00
53960;BME280;39866;48.638;-2.020;2024-01-15T09:42:13;100967.84;;;10.40;100.00
53960;BME280;39866;48.638;-2.020;2024-01-15T09:44:39;100979.28;;;10.46;100.00
53960;BME280;39866;48.638;-2.020;2024-01-15T09:47:05;100981.09;;;10.44;100.00
53960;BME280;39866;48.638;-2.020;2024-01-15T09:49:31;100982.06;;;10.39;100.00
53960;BME280;39866;48.638;-2.020;2024-01-15T09:51:58;100982.88;;;10.43;100.00
53960;BME280;39866;48.638;-2.020;2024-01-15T09:54:23;100993.56;;;10.41;100.00
53960;BME280;39866;48.638;-2.020;2024-01-15T09:56:49;101001.50;;;10.43;100.00
53960;BME280;39866;48.638;-2.020;2024-01-15T09:59:16;100997.88;;;10.47;100.00
53960;BME280;39866;48.638;-2.020;2024-01-15T10:01:43;101002.25;;;10.50;100.00
53960;BME280;39866;48.638;-2.020;2024-01-15T10:04:10;100998.56;;;10.55;100.00
53960;BME280;39866;48.638;-2.020;2024-01-15T10:06:35;101001.28;;;10.54;100.00
53960;BME280;39866;48.638;-2.020;2024-01-15T10:09:01;101006.47;;;10.58;100.00
53960;BME280;39866;48.638;-2.020;2024-01-15T10:11:28;101008.16;;;10.61;100.00
53960;BME280;39866;48.638;-2.020;2024-01-15T10:13:54;101013.47;;;10.62;100.00
53960;BME280;39866;48.638;-2.020;2024-01-15T10:16:22;101006.28;;;10.66;100.00
53960;BME280;39866;48.638;-2.020;2024-01-15T10:18:48;101012.41;;;10.70;100.00
53960;BME280;39866;48.638;-2.020;2024-01-15T10:21:14;101016.94;;;10.66;100.00
53960;BME280;39866;48.638;-2.020;2024-01-15T10:23:40;101020.28;;;10.74;100.00
53960;BME280;39866;48.638;-2.020;2024-01-15T10:26:06;101021.13;;;10.76;100.00
53960;BME280;39866;48.638;-2.020;2024-01-15T10:28:31;101021.78;;;10.84;100.00
53960;BME280;39866;48.638;-2.020;2024-01-15T10:30:58;101019.19;;;10.83;100.00
53960;BME280;39866;48.638;-2.020;2024-01-15T10:33:27;101018.06;;;10.91;100.00
53960;BME280;39866;48.638;-2.020;2024-01-15T10:35:57;101018.03;;;10.93;100.00
53960;BME280;39866;48.638;-2.020;2024-01-15T10:38:24;101021.53;;;10.95;100.00
53960;BME280;39866;48.638;-2.020;2024-01-15T10:40:56;101010.88;;;10.95;100.00
53960;BME280;39866;48.638;-2.020;2024-01-15T10:43:22;101014.78;;;10.80;100.00
53960;BME280;39866;48.638;-2.020;2024-01-15T10:45:49;101014.47;;;10.93;100.00
53960;BME280;39866;48.638;-2.020;2024-01-15T10:48:19;101003.81;;;10.93;100.00
53960;BME280;39866;48.638;-2.020;2024-01-15T10:50:45;100988.81;;;10.90;100.00
53960;BME280;39866;48.638;-2.020;2024-01-15T10:53:14;101010.56;;;11.06;100.00
53960;BME280;39866;48.638;-2.020;2024-01-15T10:55:41;101005.19;;;11.09;100.00
53960;BME280;39866;48.638;-2.020;2024-01-15T10:58:07;101009.63;;;11.08;100.00
53960;BME280;39866;48.638;-2.020;2024-01-15T11:00:35;101016.56;;;11.14;100.00
53960;BME280;39866;48.638;-2.020;2024-01-15T11:03:01;101017.63;;;11.08;100.00
53960;BME280;39866;48.638;-2.020;2024-01-15T11:05:27;101016.50;;;11.17;100.00
53960;BME280;39866;48.638;-2.020;2024-01-15T11:07:56;101010.34;;;11.15;100.00
53960;BME280;39866;48.638;-2.020;2024-01-15T11:10:43;101014.59;;;11.22;100.00
53960;BME280;39866;48.638;-2.020;2024-01-15T11:18:32;101021.31;;;11.37;100.00
53960;BME280;39866;48.638;-2.020;2024-01-15T11:26:35;101016.03;;;11.34;100.00
53960;BME280;39866;48.638;-2.020;2024-01-15T11:29:10;101009.69;;;11.39;100.00
53960;BME280;39866;48.638;-2.020;2024-01-15T11:34:04;101018.44;;;11.45;100.00
53960;BME280;39866;48.638;-2.020;2024-01-15T11:41:54;101015.34;;;11.27;100.00
53960;BME280;39866;48.638;-2.020;2024-01-15T11:44:21;101023.44;;;11.24;100.00
53960;BME280;39866;48.638;-2.020;2024-01-15T11:46:59;101015.34;;;11.27;100.00
53960;BME280;39866;48.638;-2.020;2024-01-15T11:50:03;101022.25;;;11.34;100.00
53960;BME280;39866;48.638;-2.020;2024-01-15T11:52:38;101018.72;;;11.34;100.00
53960;BME280;39866;48.638;-2.020;2024-01-15T11:57:51;101027.69;;;11.31;100.00
53960;BME280;39866;48.638;-2.020;2024-01-15T12:00:18;101013.38;;;11.34;100.00
53960;BME280;39866;48.638;-2.020;2024-01-15T12:02:45;101009.69;;;11.39;100.00
53960;BME280;39866;48.638;-2.020;2024-01-15T12:05:15;101017.56;;;11.44;100.00
53960;BME280;39866;48.638;-2.020;2024-01-15T12:07:42;101015.75;;;11.12;100.00
53960;BME280;39866;48.638;-2.020;2024-01-15T12:10:12;101019.22;;;11.15;100.00
53960;BME280;39866;48.638;-2.020;2024-01-15T12:15:09;101028.09;;;11.16;100.00
53960;BME280;39866;48.638;-2.020;2024-01-15T12:17:35;101037.41;;;11.00;100.00
53960;BME280;39866;48.638;-2.020;2024-01-15T12:20:03;101033.78;;;10.66;100.00
53960;BME280;39866;48.638;-2.020;2024-01-15T12:22:28;101030.84;;;10.41;100.00
53960;BME280;39866;48.638;-2.020;2024-01-15T12:24:53;101039.75;;;10.76;100.00
53960;BME280;39866;48.638;-2.020;2024-01-15T12:27:20;101040.00;;;10.67;100.00
53960;BME280;39866;48.638;-2.020;2024-01-15T12:29:45;101037.09;;;10.76;100.00
53960;BME280;39866;48.638;-2.020;2024-01-15T12:32:12;101043.03;;;10.87;100.00
53960;BME280;39866;48.638;-2.020;2024-01-15T12:34:37;101035.66;;;10.99;100.00
53960;BME280;39866;48.638;-2.020;2024-01-15T12:37:03;101039.22;;;10.98;100.00
53960;BME280;39866;48.638;-2.020;2024-01-15T12:39:29;101037.22;;;11.06;100.00
53960;BME280;39866;48.638;-2.020;2024-01-15T12:41:54;101031.56;;;11.18;100.00
53960;BME280;39866;48.638;-2.020;2024-01-15T12:44:20;101041.28;;;11.21;100.00
53960;BME280;39866;48.638;-2.020;2024-01-15T12:46:45;101035.00;;;11.23;100.00
53960;BME280;39866;48.638;-2.020;2024-01-15T12:49:13;101045.00;;;10.79;100.00
53960;BME280;39866;48.638;-2.020;2024-01-15T12:51:38;101042.28;;;10.45;100.00
53960;BME280;39866;48.638;-2.020;2024-01-15T12:54:04;101045.44;;;10.62;100.00